SBOSBO LUX / ELLX
Speedbird OnlineSpeedbird Online LUX / ELLX

Luxembourg-Findel International Airport
01:55 1.1°C

Location Luxemburg, Luxembourg
Latitude: 49.6233333
Longitude: 6.2044444
Local Time 01:55 on 28 Feb 2024
UTC +1 hours (Europe/Luxembourg)
Currency £1 equals EUR 1.17
METAR ELLX 280020Z 01005KT 340V050 6000 BKN006 03/02 Q1018 NOSIG
TAF TAF ELLX 272300Z 2800/2906 02005KT 8000 NSC TEMPO 2800/2810 2100 BR BKN004 PROB30 TEMPO 2802/2804 0800 FG SCT000 BKN001 BECMG 2810/2813 24004KT
Weather As Of 28 Feb 2024 01:55
Description Broken clouds
Wind 9 km/h from North (10°)
Cloud Cover 75%
Precipitation Rain: none, Snow: none
Sunrise 07:21
Sunset 18:14
NOTAM 31 active NOTAM
Rotations During the last 90 days there were
95 flights from LHR
94 flights to LHR
Lounges The Lounge by Luxair, Terminal A
Web Airport Website | Wikipedia
Codes IATA: LUX
ICAO: ELLX
Altitude 376 Meter / 1234 Feet
Distance 478 KM / 297 Miles
from London.
Runways
RunwayLength (m)Surface
064002ASPHALT
244002ASPHALT
Radio
TypeDescriptionFrequency
APPLuxembourg Approach120.885
ATISATIS134.755
TWRLuxembourg Tower118.105
VDFHomer118.105
Live ATC



Support Speedbird Online

© 2017-2024 Speedbird Online